createdAt,value
2019-03-27T00:00:12.978Z,5.80
2019-03-27T00:02:41.366Z,4.85
2019-03-27T00:05:09.929Z,6.72
2019-03-27T00:07:38.401Z,5.00
2019-03-27T00:10:10.238Z,4.28
2019-03-27T00:12:38.881Z,5.08
2019-03-27T00:15:13.409Z,5.40
2019-03-27T00:17:39.615Z,6.47
2019-03-27T00:20:09.862Z,6.67
2019-03-27T00:22:38.330Z,5.40
2019-03-27T00:25:08.797Z,7.15
2019-03-27T00:27:37.512Z,5.95
2019-03-27T00:30:07.865Z,5.20
2019-03-27T00:32:36.492Z,5.50
2019-03-27T00:35:06.829Z,6.35
2019-03-27T00:37:35.234Z,6.08
2019-03-27T00:40:06.985Z,6.58
2019-03-27T00:42:35.620Z,6.40
2019-03-27T00:45:06.414Z,6.85
2019-03-27T00:47:34.822Z,6.90
2019-03-27T00:50:03.626Z,5.53
2019-03-27T00:52:32.045Z,6.60
2019-03-27T00:55:00.488Z,7.20
2019-03-27T00:57:28.911Z,6.40
2019-03-27T00:59:57.310Z,7.80
2019-03-27T01:02:25.702Z,7.05
2019-03-27T01:04:54.102Z,8.08
2019-03-27T01:07:22.511Z,8.05
2019-03-27T01:09:50.917Z,8.35
2019-03-27T01:12:19.312Z,7.75
2019-03-27T01:14:47.711Z,8.03
2019-03-27T01:17:16.104Z,8.70
2019-03-27T01:19:44.505Z,7.70
2019-03-27T01:22:13.147Z,7.37
2019-03-27T01:24:41.545Z,7.10
2019-03-27T01:27:10.229Z,8.50
2019-03-27T01:29:38.661Z,8.55
2019-03-27T01:32:07.057Z,7.50
2019-03-27T01:34:35.699Z,8.75
2019-03-27T01:37:04.101Z,9.13
2019-03-27T01:39:32.492Z,8.03
2019-03-27T01:42:00.970Z,8.25
2019-03-27T01:44:29.361Z,9.30
2019-03-27T01:46:57.982Z,8.15
2019-03-27T01:49:26.379Z,10.23
2019-03-27T01:51:55.003Z,8.40
2019-03-27T01:54:23.407Z,9.45
2019-03-27T01:56:51.813Z,9.23
2019-03-27T01:59:20.214Z,8.70
2019-03-27T02:01:50.593Z,8.98
2019-03-27T02:04:18.994Z,10.20
2019-03-27T02:06:47.661Z,10.53
2019-03-27T02:09:16.302Z,12.13
2019-03-27T02:11:44.703Z,10.48
2019-03-27T02:14:13.203Z,10.13
2019-03-27T02:16:41.623Z,10.60
2019-03-27T02:19:10.006Z,9.63
2019-03-27T02:21:38.413Z,10.05
2019-03-27T02:24:06.820Z,11.40
2019-03-27T02:26:35.254Z,9.55
2019-03-27T02:29:03.672Z,8.55
2019-03-27T02:31:32.067Z,9.58
2019-03-27T02:34:00.547Z,10.10
2019-03-27T02:36:28.987Z,9.25
2019-03-27T02:38:57.394Z,10.28
2019-03-27T02:41:25.786Z,8.90
2019-03-27T02:43:54.214Z,10.58
2019-03-27T02:46:25.065Z,10.43
2019-03-27T02:48:52.775Z,10.25
2019-03-27T02:51:21.227Z,10.85
2019-03-27T02:53:49.617Z,10.58
2019-03-27T02:56:18.016Z,11.20
2019-03-27T02:58:46.424Z,10.68
2019-03-27T03:01:15.060Z,10.72
2019-03-27T03:03:43.754Z,10.75
2019-03-27T03:06:12.186Z,10.13
2019-03-27T03:08:40.589Z,9.70
2019-03-27T03:11:09.235Z,10.90
2019-03-27T03:13:37.650Z,11.25
2019-03-27T03:16:06.046Z,10.00
2019-03-27T03:18:34.448Z,9.53
2019-03-27T03:21:02.838Z,9.00
2019-03-27T03:23:31.254Z,9.35
2019-03-27T03:25:59.652Z,9.85
2019-03-27T03:28:28.073Z,11.10
2019-03-27T03:30:56.451Z,9.28
2019-03-27T03:33:24.859Z,10.25
2019-03-27T03:35:53.280Z,10.10
2019-03-27T03:38:21.689Z,10.78
2019-03-27T03:40:50.095Z,10.93
2019-03-27T03:43:18.502Z,10.75
2019-03-27T03:45:46.906Z,9.80
2019-03-27T03:48:15.567Z,11.20
2019-03-27T03:50:44.691Z,10.43
2019-03-27T03:53:14.389Z,11.03
2019-03-27T03:55:43.764Z,12.05
2019-03-27T03:58:14.401Z,13.10
2019-03-27T04:00:43.563Z,10.98
2019-03-27T04:03:12.408Z,10.85
2019-03-27T04:05:40.812Z,10.30
2019-03-27T04:08:09.222Z,10.72
2019-03-27T04:10:37.620Z,9.18
2019-03-27T04:13:06.023Z,10.60
2019-03-27T04:15:34.435Z,8.68
2019-03-27T04:18:02.901Z,10.80
2019-03-27T04:20:31.315Z,10.15
2019-03-27T04:23:00.047Z,10.63
2019-03-27T04:25:28.426Z,10.63
2019-03-27T04:27:56.831Z,9.15
2019-03-27T04:30:25.415Z,10.20
2019-03-27T04:32:53.811Z,9.30
2019-03-27T04:35:22.213Z,9.33
2019-03-27T04:37:50.610Z,9.88
2019-03-27T04:40:19.011Z,9.45
2019-03-27T04:42:47.421Z,8.90
2019-03-27T04:45:17.698Z,9.43
2019-03-27T04:47:46.090Z,9.60
2019-03-27T04:50:14.505Z,10.35
2019-03-27T04:52:42.926Z,10.78
2019-03-27T04:55:11.657Z,10.98
2019-03-27T04:57:40.143Z,11.03
2019-03-27T05:00:10.677Z,12.70
2019-03-27T05:02:45.879Z,11.85
2019-03-27T05:05:14.877Z,12.65
2019-03-27T05:07:43.278Z,13.78
2019-03-27T05:10:11.830Z,13.50
2019-03-27T05:12:40.293Z,13.50
2019-03-27T05:15:08.989Z,13.32
2019-03-27T05:17:45.962Z,13.32
2019-03-27T05:20:09.070Z,13.10
2019-03-27T05:22:37.592Z,13.58
2019-03-27T05:25:06.063Z,14.13
2019-03-27T05:27:36.286Z,14.95
2019-03-27T05:30:07.243Z,14.05
2019-03-27T05:32:35.630Z,13.35
2019-03-27T05:35:06.838Z,15.13
2019-03-27T05:37:35.293Z,13.38
2019-03-27T05:40:04.843Z,13.72
2019-03-27T05:42:33.279Z,11.80
2019-03-27T05:45:01.706Z,12.03
2019-03-27T05:47:30.334Z,13.75
2019-03-27T05:49:58.758Z,13.62
2019-03-27T05:52:27.158Z,11.18
2019-03-27T05:54:55.833Z,12.35
2019-03-27T05:57:24.237Z,11.73
2019-03-27T05:59:52.632Z,12.85
2019-03-27T06:02:21.105Z,12.25
2019-03-27T06:04:49.764Z,12.63
2019-03-27T06:07:18.162Z,11.63
2019-03-27T06:09:46.562Z,11.57
2019-03-27T06:12:14.958Z,13.83
2019-03-27T06:14:43.597Z,14.58
2019-03-27T06:17:12.006Z,10.85
2019-03-27T06:19:40.417Z,13.32
2019-03-27T06:22:08.822Z,11.53
2019-03-27T06:24:37.534Z,10.53
2019-03-27T06:27:05.966Z,10.08
2019-03-27T06:29:34.383Z,12.13
2019-03-27T06:32:02.776Z,12.58
2019-03-27T06:34:31.164Z,10.85
2019-03-27T06:36:59.592Z,11.63
2019-03-27T06:39:27.966Z,10.80
2019-03-27T06:41:56.357Z,11.57
2019-03-27T06:44:24.765Z,10.15
2019-03-27T06:46:53.394Z,10.70
2019-03-27T06:49:22.018Z,10.48
2019-03-27T06:51:50.667Z,10.25
2019-03-27T06:54:19.069Z,10.98
2019-03-27T06:56:47.466Z,11.08
2019-03-27T06:59:15.862Z,10.60
2019-03-27T07:01:44.325Z,10.58
2019-03-27T07:04:12.821Z,10.30
2019-03-27T07:06:41.234Z,10.70
2019-03-27T07:09:09.736Z,9.60
2019-03-27T07:11:38.236Z,8.55
2019-03-27T07:14:06.625Z,8.53
2019-03-27T07:16:35.264Z,8.58
2019-03-27T07:19:03.660Z,8.45
2019-03-27T07:21:32.073Z,8.80
2019-03-27T07:24:00.469Z,8.75
2019-03-27T07:26:28.888Z,8.15
2019-03-27T07:28:57.363Z,8.88
2019-03-27T07:31:25.762Z,10.18
2019-03-27T07:33:54.155Z,9.95
2019-03-27T07:36:22.550Z,9.25
2019-03-27T07:38:50.949Z,10.20
2019-03-27T07:41:19.591Z,9.03
2019-03-27T07:43:48.005Z,11.25
2019-03-27T07:46:16.428Z,10.18
2019-03-27T07:48:53.768Z,10.72
2019-03-27T07:51:14.949Z,11.55
2019-03-27T07:53:43.354Z,10.32
2019-03-27T07:56:11.750Z,10.08
2019-03-27T07:58:40.387Z,11.25
2019-03-27T08:01:08.787Z,12.07
2019-03-27T08:03:37.185Z,13.32
2019-03-27T08:06:05.753Z,12.80
2019-03-27T08:08:34.409Z,13.78
2019-03-27T08:11:03.085Z,15.25
2019-03-27T08:13:31.598Z,14.93
2019-03-27T08:16:00.246Z,18.12
2019-03-27T08:18:28.638Z,18.07
2019-03-27T08:20:57.040Z,15.55
2019-03-27T08:23:25.687Z,16.82
2019-03-27T08:25:54.072Z,17.05
2019-03-27T08:28:22.477Z,15.83
2019-03-27T08:30:50.883Z,17.48
2019-03-27T08:33:19.325Z,15.60
2019-03-27T08:35:47.720Z,16.48
2019-03-27T08:38:16.106Z,15.75
2019-03-27T08:40:44.566Z,16.57
2019-03-27T08:43:21.189Z,16.55
2019-03-27T08:45:43.146Z,17.87
2019-03-27T08:48:11.568Z,16.93
2019-03-27T08:50:39.985Z,20.17
2019-03-27T08:53:08.386Z,18.20
2019-03-27T08:55:37.073Z,17.98
2019-03-27T08:58:05.481Z,18.42
2019-03-27T09:00:51.539Z,17.75
2019-03-27T09:03:20.083Z,18.87
2019-03-27T09:05:48.620Z,19.80
2019-03-27T09:08:17.267Z,21.27
2019-03-27T09:10:45.939Z,20.43
2019-03-27T09:13:14.597Z,20.12
2019-03-27T09:15:43.251Z,20.57
2019-03-27T09:18:11.666Z,20.37
2019-03-27T09:20:40.068Z,20.75
2019-03-27T09:23:08.750Z,20.82
2019-03-27T09:25:37.165Z,23.00
2019-03-27T09:28:05.594Z,23.22
2019-03-27T09:30:34.254Z,24.50
2019-03-27T09:33:02.683Z,22.90
2019-03-27T09:35:31.166Z,24.97
2019-03-27T09:37:59.778Z,25.80
2019-03-27T09:40:28.495Z,26.27
2019-03-27T09:42:57.039Z,27.30
2019-03-27T09:45:25.446Z,27.60
2019-03-27T09:47:56.811Z,26.83
2019-03-27T09:50:25.262Z,28.43
2019-03-27T09:52:53.994Z,26.53
2019-03-27T09:55:22.645Z,28.77
2019-03-27T09:57:51.349Z,27.87
2019-03-27T10:00:48.490Z,28.23
2019-03-27T10:03:17.225Z,29.43
2019-03-27T10:05:45.863Z,25.83
2019-03-27T10:08:14.274Z,27.50
2019-03-27T10:10:42.687Z,29.07
2019-03-27T10:13:11.114Z,29.30
2019-03-27T10:15:39.758Z,28.50
2019-03-27T10:18:08.163Z,27.57
2019-03-27T10:20:36.571Z,26.53
2019-03-27T10:23:05.002Z,28.30
2019-03-27T10:25:33.399Z,26.17
2019-03-27T10:28:01.910Z,25.77
2019-03-27T10:30:30.318Z,27.40
2019-03-27T10:32:58.964Z,27.80
2019-03-27T10:35:27.342Z,28.03
2019-03-27T10:37:55.989Z,25.43
2019-03-27T10:40:24.470Z,28.47
2019-03-27T10:42:52.889Z,27.40
2019-03-27T10:45:21.534Z,24.43
2019-03-27T10:47:50.180Z,22.93
2019-03-27T10:50:18.732Z,25.90
2019-03-27T10:52:47.142Z,24.10
2019-03-27T10:55:15.688Z,27.10
2019-03-27T10:57:44.095Z,25.93
2019-03-27T11:00:12.937Z,25.10
2019-03-27T11:02:41.339Z,22.63
2019-03-27T11:05:10.113Z,24.60
2019-03-27T11:07:38.727Z,21.23
2019-03-27T11:10:08.482Z,23.10
2019-03-27T11:12:37.200Z,25.73
2019-03-27T11:15:08.262Z,24.40
2019-03-27T11:17:36.923Z,23.90
2019-03-27T11:20:07.046Z,26.17
2019-03-27T11:22:35.449Z,25.93
2019-03-27T11:25:05.398Z,22.90
2019-03-27T11:27:33.865Z,20.70
2019-03-27T11:30:03.803Z,22.47
2019-03-27T11:32:32.449Z,25.33
2019-03-27T11:35:00.886Z,24.63
2019-03-27T11:37:29.292Z,22.50
2019-03-27T11:39:57.693Z,22.13
2019-03-27T11:42:26.113Z,23.97
2019-03-27T11:44:54.558Z,24.40
2019-03-27T11:47:23.006Z,25.03
2019-03-27T11:49:51.415Z,22.53
2019-03-27T11:52:19.843Z,21.80
2019-03-27T11:54:48.263Z,25.23
2019-03-27T11:57:16.670Z,24.30
2019-03-27T11:59:53.882Z,23.13
2019-03-27T12:02:15.248Z,21.00
2019-03-27T12:04:43.892Z,16.70
2019-03-27T12:07:12.294Z,20.50
2019-03-27T12:09:40.718Z,19.00
2019-03-27T12:12:09.118Z,20.67
2019-03-27T12:14:37.529Z,20.10
2019-03-27T12:17:05.982Z,18.90
2019-03-27T12:19:37.537Z,19.10
2019-03-27T12:22:04.762Z,18.50
2019-03-27T12:24:33.434Z,18.00
2019-03-27T12:27:01.860Z,17.73
2019-03-27T12:29:30.286Z,18.20
2019-03-27T12:32:18.034Z,18.67
2019-03-27T12:34:46.469Z,17.27
2019-03-27T12:37:15.067Z,15.50
2019-03-27T12:39:43.491Z,17.77
2019-03-27T12:42:12.136Z,17.20
2019-03-27T12:44:40.538Z,18.10
2019-03-27T12:47:08.956Z,19.50
2019-03-27T12:49:37.662Z,16.00
2019-03-27T12:52:06.139Z,17.80
2019-03-27T12:54:34.551Z,18.27
2019-03-27T12:57:02.955Z,18.20
2019-03-27T12:59:31.439Z,18.57
2019-03-27T13:01:59.874Z,17.47
2019-03-27T13:04:52.871Z,21.50
2019-03-27T13:07:21.287Z,22.20
2019-03-27T13:09:50.059Z,24.00
2019-03-27T13:12:18.450Z,22.37
2019-03-27T13:14:46.862Z,23.57
2019-03-27T13:17:15.279Z,22.57
2019-03-27T13:19:43.676Z,24.60
2019-03-27T13:22:12.347Z,23.70
2019-03-27T13:24:40.770Z,24.17
2019-03-27T13:27:09.170Z,24.60
2019-03-27T13:29:37.641Z,22.30
2019-03-27T13:32:06.278Z,23.40
2019-03-27T13:34:34.952Z,23.50
2019-03-27T13:37:03.354Z,24.67
2019-03-27T13:39:31.793Z,23.10
2019-03-27T13:42:00.205Z,22.60
2019-03-27T13:44:36.954Z,21.80
2019-03-27T13:46:59.267Z,24.23
2019-03-27T13:49:28.858Z,22.93
2019-03-27T13:51:57.501Z,22.30
2019-03-27T13:54:26.165Z,20.03
2019-03-27T13:56:56.104Z,22.43
2019-03-27T13:59:24.575Z,21.23
2019-03-27T14:01:53.249Z,21.07
2019-03-27T14:04:21.652Z,20.93
2019-03-27T14:06:50.062Z,19.50
2019-03-27T14:09:18.769Z,18.37
2019-03-27T14:11:47.174Z,21.63
2019-03-27T14:14:15.838Z,18.70
2019-03-27T14:16:44.262Z,20.50
2019-03-27T14:19:12.910Z,18.50
2019-03-27T14:21:53.829Z,18.40
2019-03-27T14:24:11.691Z,19.20
2019-03-27T14:26:45.464Z,20.13
2019-03-27T14:29:10.226Z,19.43
2019-03-27T14:31:39.065Z,18.60
2019-03-27T14:34:07.458Z,20.70
2019-03-27T14:36:35.859Z,20.90
2019-03-27T14:39:06.018Z,17.50
2019-03-27T14:41:34.429Z,18.27
2019-03-27T14:44:02.839Z,17.57
2019-03-27T14:46:31.241Z,16.17
2019-03-27T14:48:59.659Z,16.13
2019-03-27T14:51:28.837Z,16.30
2019-03-27T14:53:57.245Z,15.67
2019-03-27T14:56:25.723Z,17.43
2019-03-27T14:58:54.381Z,15.50
2019-03-27T15:01:22.786Z,15.17
2019-03-27T15:03:51.201Z,15.17
2019-03-27T15:06:19.612Z,14.50
2019-03-27T15:08:48.102Z,15.30
2019-03-27T15:11:16.519Z,14.37
2019-03-27T15:13:44.927Z,14.93
2019-03-27T15:16:13.355Z,14.80
2019-03-27T15:18:41.994Z,15.23
2019-03-27T15:21:10.503Z,17.77
2019-03-27T15:23:38.930Z,18.10
2019-03-27T15:26:07.599Z,18.83
2019-03-27T15:28:36.246Z,20.50
2019-03-27T15:31:05.307Z,19.00
2019-03-27T15:33:33.707Z,20.83
2019-03-27T15:36:02.191Z,19.10
2019-03-27T15:38:30.592Z,18.63
2019-03-27T15:40:59.017Z,19.97
2019-03-27T15:43:27.418Z,18.77
2019-03-27T15:45:55.827Z,19.37
2019-03-27T15:48:24.235Z,18.30
2019-03-27T15:50:57.103Z,20.30
2019-03-27T15:53:22.779Z,20.17
2019-03-27T15:55:51.268Z,19.48
2019-03-27T15:58:19.711Z,19.07
2019-03-27T16:00:48.122Z,18.52
2019-03-27T16:03:16.541Z,18.40
2019-03-27T16:05:44.946Z,20.23
2019-03-27T16:08:13.635Z,16.33
2019-03-27T16:10:42.041Z,18.35
2019-03-27T16:13:10.486Z,15.58
2019-03-27T16:15:38.935Z,17.60
2019-03-27T16:18:07.611Z,16.25
2019-03-27T16:20:36.038Z,15.75
2019-03-27T16:23:04.714Z,17.92
2019-03-27T16:25:33.181Z,15.95
2019-03-27T16:28:01.899Z,16.35
2019-03-27T16:30:30.318Z,16.97
2019-03-27T16:32:58.979Z,17.30
2019-03-27T16:35:27.403Z,15.93
2019-03-27T16:37:55.812Z,15.43
2019-03-27T16:40:42.475Z,16.30
2019-03-27T16:43:10.885Z,17.12
2019-03-27T16:45:39.765Z,17.67
2019-03-27T16:48:08.425Z,17.65
2019-03-27T16:50:36.841Z,15.58
2019-03-27T16:53:05.494Z,18.98
2019-03-27T16:55:34.153Z,17.40
2019-03-27T16:58:02.571Z,18.50
2019-03-27T17:00:30.966Z,18.37
2019-03-27T17:02:59.369Z,19.20
2019-03-27T17:05:27.822Z,17.73
2019-03-27T17:07:56.227Z,18.23
2019-03-27T17:10:24.629Z,17.98
2019-03-27T17:12:53.026Z,17.05
2019-03-27T17:15:21.704Z,17.20
2019-03-27T17:17:50.109Z,18.48
2019-03-27T17:20:18.898Z,18.42
2019-03-27T17:22:47.303Z,16.35
2019-03-27T17:25:15.811Z,15.60
2019-03-27T17:27:44.217Z,16.75
2019-03-27T17:30:13.198Z,15.90
2019-03-27T17:32:41.655Z,15.88
2019-03-27T17:35:10.188Z,16.70
2019-03-27T17:37:38.605Z,15.20
2019-03-27T17:40:07.654Z,14.87
2019-03-27T17:42:36.246Z,18.42
2019-03-27T17:45:10.740Z,15.65
2019-03-27T17:47:39.129Z,16.42
2019-03-27T17:50:07.978Z,14.07
2019-03-27T17:52:38.176Z,14.45
2019-03-27T17:55:09.405Z,14.45
2019-03-27T17:57:37.799Z,14.63
2019-03-27T18:00:12.314Z,14.15
2019-03-27T18:02:40.715Z,14.30
2019-03-27T18:05:09.494Z,16.20
2019-03-27T18:07:38.193Z,15.03
2019-03-27T18:10:07.693Z,17.07
2019-03-27T18:12:36.088Z,17.90
2019-03-27T18:15:06.182Z,16.73
2019-03-27T18:17:34.597Z,17.05
2019-03-27T18:20:03.382Z,16.48
2019-03-27T18:22:31.791Z,16.52
2019-03-27T18:25:00.347Z,14.10
2019-03-27T18:27:28.779Z,16.57
2019-03-27T18:29:57.176Z,16.10
2019-03-27T18:32:31.559Z,14.98
2019-03-27T18:35:00.387Z,16.55
2019-03-27T18:37:28.802Z,16.85
2019-03-27T18:39:57.206Z,15.95
2019-03-27T18:42:25.610Z,16.00
2019-03-27T18:44:54.001Z,16.93
2019-03-27T18:47:22.397Z,17.65
2019-03-27T18:49:50.806Z,16.40
2019-03-27T18:52:19.451Z,14.68
2019-03-27T18:54:48.197Z,16.27
2019-03-27T18:57:16.595Z,16.93
2019-03-27T18:59:44.993Z,17.05
2019-03-27T19:02:13.397Z,15.45
2019-03-27T19:04:42.146Z,17.12
2019-03-27T19:07:10.612Z,18.87
2019-03-27T19:09:39.277Z,17.02
2019-03-27T19:12:07.720Z,17.77
2019-03-27T19:14:36.168Z,18.50
2019-03-27T19:17:04.643Z,17.23
2019-03-27T19:19:33.357Z,16.12
2019-03-27T19:22:01.758Z,16.67
2019-03-27T19:24:32.117Z,17.02
2019-03-27T19:27:00.754Z,16.45
2019-03-27T19:29:29.238Z,16.40
2019-03-27T19:31:57.623Z,15.85
2019-03-27T19:34:26.261Z,15.83
2019-03-27T19:36:54.857Z,17.40
2019-03-27T19:39:23.246Z,17.75
2019-03-27T19:41:52.001Z,16.05
2019-03-27T19:44:20.597Z,14.90
2019-03-27T19:46:49.314Z,15.40
2019-03-27T19:49:22.046Z,14.75
2019-03-27T19:51:50.642Z,15.58
2019-03-27T19:54:27.090Z,16.90
2019-03-27T19:56:49.422Z,14.35
2019-03-27T19:59:18.138Z,13.53
2019-03-27T20:01:47.439Z,15.80
2019-03-27T20:04:18.889Z,14.33
2019-03-27T20:06:47.688Z,15.45
2019-03-27T20:09:16.559Z,15.68
2019-03-27T20:11:45.471Z,14.87
2019-03-27T20:14:14.313Z,15.55
2019-03-27T20:16:43.034Z,15.25
2019-03-27T20:19:11.625Z,15.93
2019-03-27T20:21:40.034Z,17.05
2019-03-27T20:24:08.838Z,17.12
2019-03-27T20:26:39.406Z,16.40
2019-03-27T20:29:07.804Z,15.70
2019-03-27T20:31:39.410Z,14.45
2019-03-27T20:34:09.032Z,15.00
2019-03-27T20:36:38.294Z,14.70
2019-03-27T20:39:08.468Z,15.15
2019-03-27T20:41:37.690Z,14.53
2019-03-27T20:44:16.524Z,16.05
2019-03-27T20:46:45.042Z,15.53
2019-03-27T20:49:14.204Z,16.37
2019-03-27T20:51:46.890Z,16.35
2019-03-27T20:54:15.382Z,17.42
2019-03-27T20:56:45.604Z,17.50
2019-03-27T20:59:14.150Z,20.62
2019-03-27T21:01:44.413Z,19.82
2019-03-27T21:04:12.862Z,18.15
2019-03-27T21:06:41.314Z,18.98
2019-03-27T21:09:09.838Z,15.55
2019-03-27T21:11:38.733Z,16.70
2019-03-27T21:14:07.362Z,18.10
2019-03-27T21:16:35.810Z,18.50
2019-03-27T21:19:04.262Z,18.20
2019-03-27T21:21:32.657Z,15.93
2019-03-27T21:24:01.426Z,17.90
2019-03-27T21:26:29.822Z,18.23
2019-03-27T21:28:58.231Z,16.87
2019-03-27T21:31:26.869Z,17.30
2019-03-27T21:33:57.714Z,17.42
2019-03-27T21:36:25.492Z,16.97
2019-03-27T21:38:53.935Z,16.05
2019-03-27T21:41:22.357Z,25.90
2019-03-27T21:43:50.835Z,18.77
2019-03-27T21:46:19.242Z,18.27
2019-03-27T21:48:47.642Z,17.15
2019-03-27T21:51:16.081Z,15.85
2019-03-27T21:53:50.389Z,15.50
2019-03-27T21:56:14.630Z,15.63
2019-03-27T21:58:55.033Z,14.35
2019-03-27T22:01:23.439Z,17.48
2019-03-27T22:03:52.059Z,16.52
2019-03-27T22:06:20.446Z,18.48
2019-03-27T22:08:49.087Z,18.00
2019-03-27T22:11:17.567Z,20.43
2019-03-27T22:13:46.208Z,18.42
2019-03-27T22:16:14.610Z,17.82
2019-03-27T22:18:53.146Z,17.95
2019-03-27T22:21:24.837Z,16.15
2019-03-27T22:23:53.239Z,18.85
2019-03-27T22:26:22.590Z,17.67
2019-03-27T22:28:51.193Z,18.05
2019-03-27T22:31:21.802Z,18.35
2019-03-27T22:33:50.458Z,18.37
2019-03-27T22:36:18.858Z,20.02
2019-03-27T22:38:47.512Z,21.48
2019-03-27T22:41:16.179Z,21.95
2019-03-27T22:43:44.602Z,22.37
2019-03-27T22:46:13.105Z,20.72
2019-03-27T22:48:41.808Z,19.23
2019-03-27T22:51:10.503Z,18.27
2019-03-27T22:53:38.967Z,20.23
2019-03-27T22:56:10.390Z,21.60
2019-03-27T22:59:01.923Z,22.02
2019-03-27T23:01:44.699Z,21.40
2019-03-27T23:04:13.939Z,19.62
2019-03-27T23:06:51.958Z,18.10
2019-03-27T23:09:20.832Z,19.60
2019-03-27T23:11:49.511Z,19.17
2019-03-27T23:14:18.530Z,18.85
2019-03-27T23:16:47.291Z,17.50
2019-03-27T23:19:16.733Z,17.05
2019-03-27T23:21:45.620Z,18.17
2019-03-27T23:24:15.063Z,19.40
2019-03-27T23:26:50.151Z,20.10
2019-03-27T23:29:19.555Z,20.55
2019-03-27T23:31:48.449Z,20.85
2019-03-27T23:34:17.181Z,20.30
2019-03-27T23:36:45.778Z,18.73
2019-03-27T23:39:14.474Z,18.95
2019-03-27T23:41:43.266Z,19.95
2019-03-27T23:44:14.562Z,21.42
2019-03-27T23:46:43.230Z,23.15
2019-03-27T23:49:12.333Z,24.18
2019-03-27T23:51:42.325Z,25.52
2019-03-27T23:54:11.403Z,25.23
2019-03-27T23:56:40.231Z,24.72
2019-03-27T23:59:08.754Z,22.55
